Time;durP1;ratioP1;P1;durP2;ratioP2;P2;SDS_P1;SDS_P2;PMS_P1;PMS_P2;Temp;Humidity;BMP_temperature;BMP_pressure;BME280_temperature;BME280_humidity;BME280_pressure;Samples;Min_cycle;Max_cycle;Signal;HPM_P1;HPM_P2
2023/07/15 00:00:34;;;;;;;;;;;;;;;28.52;36.11;100872.72;5078789;28;1110;-18
2023/07/15 00:03:00;;;;;;;;;;;;;;;28.51;35.80;100874.59;5079347;28;1103;-18
2023/07/15 00:05:29;;;;;;;;;;;;;;;28.47;35.53;100874.16;5079168;28;1910;-18
2023/07/15 00:07:55;;;;;;;;;;;;;;;28.43;35.70;100871.97;5078934;28;1118;-18
2023/07/15 00:10:21;;;;;;;;;;;;;;;28.43;35.76;100870.13;5079320;28;1245;-18
2023/07/15 00:12:46;;;;;;;;;;;;;;;28.48;35.63;100866.84;5078844;28;1023;-18
2023/07/15 00:15:12;;;;;;;;;;;;;;;28.48;35.46;100866.84;5079253;28;1102;-18
2023/07/15 00:17:38;;;;;;;;;;;;;;;28.41;36.23;100863.25;5078857;28;1091;-18
2023/07/15 00:20:07;;;;;;;;;;;;;;;28.42;36.11;100868.47;5079357;28;1062;-18
2023/07/15 00:22:34;;;;;;;;;;;;;;;28.39;35.45;100865.28;5079273;28;1122;-18
2023/07/15 00:24:59;;;;;;;;;;;;;;;28.43;35.92;100855.75;5078149;28;2431;-18
2023/07/15 00:27:25;;;;;;;;;;;;;;;28.45;35.99;100861.81;5078725;28;1189;-18
2023/07/15 00:29:51;;;;;;;;;;;;;;;28.41;35.54;100861.34;5078741;28;1171;-18
2023/07/15 00:32:16;;;;;;;;;;;;;;;28.41;36.16;100857.84;5078813;28;1085;-18
2023/07/15 00:34:42;;;;;;;;;;;;;;;28.47;36.02;100863.31;5060857;28;1135;-18
2023/07/15 00:37:08;;;;;;;;;;;;;;;28.43;36.24;100863.88;5060648;28;1092;-18
2023/07/15 00:39:35;;;;;;;;;;;;;;;28.38;35.87;100859.03;5078728;28;1087;-18
2023/07/15 00:42:06;;;;;;;;;;;;;;;28.43;35.49;100864.72;5078872;28;1099;-18
2023/07/15 00:44:31;;;;;;;;;;;;;;;28.39;36.05;100866.13;5060680;28;1975;-18
2023/07/15 00:47:00;;;;;;;;;;;;;;;28.50;35.85;100861.25;5078746;28;1006;-18
2023/07/15 00:49:26;;;;;;;;;;;;;;;28.47;35.62;100860.63;5056988;28;1095;-18
2023/07/15 00:52:01;;;;;;;;;;;;;;;28.48;35.78;100865.00;5072169;28;1123;-18
2023/07/15 00:54:27;;;;;;;;;;;;;;;28.48;35.78;100865.00;5072772;28;2423;-18
2023/07/15 00:56:52;;;;;;;;;;;;;;;28.41;35.41;100866.75;5055467;28;1137;-18
2023/07/15 00:59:18;;;;;;;;;;;;;;;28.35;36.18;100864.81;5078700;28;1117;-18
2023/07/15 01:01:45;;;;;;;;;;;;;;;28.43;35.51;100855.75;5077168;28;904;-18
2023/07/15 01:04:10;;;;;;;;;;;;;;;28.42;35.82;100867.63;5060450;28;1902;-18
2023/07/15 01:06:36;;;;;;;;;;;;;;;28.45;35.74;100864.53;5078345;28;1170;-18
2023/07/15 01:09:07;;;;;;;;;;;;;;;28.40;35.57;100869.66;5059644;28;1158;-18
2023/07/15 01:11:33;;;;;;;;;;;;;;;28.44;35.88;100871.81;5078192;28;991;-18
2023/07/15 01:13:58;;;;;;;;;;;;;;;28.41;35.94;100877.59;5078010;28;919;-18
2023/07/15 01:16:24;;;;;;;;;;;;;;;28.32;36.01;100882.25;5078160;28;1100;-18
2023/07/15 01:18:50;;;;;;;;;;;;;;;28.43;35.97;100882.81;5078008;28;1095;-18
2023/07/15 01:21:15;;;;;;;;;;;;;;;28.39;35.54;100878.81;5077862;28;1170;-18
2023/07/15 01:23:41;;;;;;;;;;;;;;;28.40;35.77;100877.78;5077781;28;1972;-18
2023/07/15 01:26:06;;;;;;;;;;;;;;;28.38;35.98;100875.25;5075876;28;2736;-18
2023/07/15 01:28:36;;;;;;;;;;;;;;;28.35;35.54;100883.75;5060146;28;1248;-18
2023/07/15 01:31:04;;;;;;;;;;;;;;;28.41;36.10;100882.19;5078161;28;1178;-18
2023/07/15 01:33:30;;;;;;;;;;;;;;;28.44;35.73;100887.22;5047462;28;1128;-18
2023/07/15 01:35:56;;;;;;;;;;;;;;;28.31;36.31;100891.38;5037726;28;1218;-18
2023/07/15 01:38:22;;;;;;;;;;;;;;;28.32;36.26;100893.06;5037807;28;885;-18
2023/07/15 01:40:48;;;;;;;;;;;;;;;28.40;36.01;100886.75;5037797;28;1175;-18
2023/07/15 01:43:13;;;;;;;;;;;;;;;28.35;35.65;100891.88;5037737;28;991;-18
2023/07/15 01:45:39;;;;;;;;;;;;;;;28.30;36.11;100894.28;5036106;28;1906;-18
2023/07/15 01:48:05;;;;;;;;;;;;;;;28.39;35.94;100898.59;5036548;28;1119;-18
2023/07/15 01:50:32;;;;;;;;;;;;;;;28.36;36.09;100904.41;5031775;28;1680;-18
2023/07/15 01:52:58;;;;;;;;;;;;;;;28.38;36.54;100904.22;5018715;28;1133;-18
2023/07/15 01:55:25;;;;;;;;;;;;;;;28.37;36.07;100900.66;5018875;28;2261;-18
2023/07/15 01:57:51;;;;;;;;;;;;;;;28.34;36.38;100901.84;5037476;28;1078;-18
2023/07/15 02:00:16;;;;;;;;;;;;;;;28.44;35.91;100906.16;5035953;28;1290;-18
2023/07/15 02:02:42;;;;;;;;;;;;;;;28.38;36.61;100912.31;5036122;28;1047;-18
2023/07/15 02:05:08;;;;;;;;;;;;;;;28.33;36.62;100915.56;5037217;28;1898;-18
2023/07/15 02:07:33;;;;;;;;;;;;;;;28.38;35.98;100915.84;5036781;28;976;-18
2023/07/15 02:09:59;;;;;;;;;;;;;;;28.35;36.14;100918.94;5037099;28;1130;-18
2023/07/15 02:12:25;;;;;;;;;;;;;;;28.39;36.16;100925.66;5036946;28;1086;-18
2023/07/15 02:14:50;;;;;;;;;;;;;;;28.30;36.58;100922.16;5036010;28;1035;-18
2023/07/15 02:17:20;;;;;;;;;;;;;;;28.36;36.50;100923.34;5035797;28;1124;-18
2023/07/15 02:19:47;;;;;;;;;;;;;;;28.40;36.54;100924.63;5037085;28;1043;-18
2023/07/15 02:22:13;;;;;;;;;;;;;;;28.31;36.43;100926.53;5037025;28;1123;-18
2023/07/15 02:24:38;;;;;;;;;;;;;;;28.33;36.75;100929.09;5032232;28;2394;-18
2023/07/15 02:27:05;;;;;;;;;;;;;;;28.40;36.08;100938.16;5036948;28;979;-18
2023/07/15 02:29:31;;;;;;;;;;;;;;;28.41;36.51;100939.81;5036456;28;1064;-18
2023/07/15 02:31:57;;;;;;;;;;;;;;;28.34;36.39;100936.19;5035732;28;1113;-18
2023/07/15 02:34:23;;;;;;;;;;;;;;;28.05;37.18;100932.41;5068965;28;1238;-18
2023/07/15 02:36:48;;;;;;;;;;;;;;;27.94;37.50;100928.31;5058170;28;1149;-18
2023/07/15 02:39:14;;;;;;;;;;;;;;;27.92;37.62;100933.91;5076528;28;1109;-18
2023/07/15 02:41:40;;;;;;;;;;;;;;;27.91;37.03;100936.78;5058420;28;1090;-18
2023/07/15 02:44:06;;;;;;;;;;;;;;;27.92;37.44;100935.75;5076340;28;1906;-18
2023/07/15 02:46:31;;;;;;;;;;;;;;;27.83;37.70;100938.53;5076248;28;1056;-18
2023/07/15 02:48:57;;;;;;;;;;;;;;;27.92;36.74;100941.16;5076079;28;1095;-18
2023/07/15 02:51:24;;;;;;;;;;;;;;;27.92;37.50;100938.47;5076433;28;983;-18
2023/07/15 02:53:50;;;;;;;;;;;;;;;27.86;37.27;100937.34;5056779;28;2391;-18
2023/07/15 02:56:15;;;;;;;;;;;;;;;27.82;37.11;100938.72;5056440;28;1075;-18
2023/07/15 02:58:41;;;;;;;;;;;;;;;27.88;37.40;100937.97;5072383;28;1121;-18
2023/07/15 03:01:09;;;;;;;;;;;;;;;27.81;37.21;100935.16;5058231;28;1123;-18
2023/07/15 03:03:36;;;;;;;;;;;;;;;27.81;37.22;100943.28;5076104;28;1933;-18
2023/07/15 03:06:01;;;;;;;;;;;;;;;27.84;37.53;100948.31;5057836;28;1054;-18
2023/07/15 03:08:27;;;;;;;;;;;;;;;27.82;36.98;100942.28;5057761;28;2332;-18
2023/07/15 03:10:52;;;;;;;;;;;;;;;27.78;37.63;100945.53;5076366;28;1054;-18
2023/07/15 03:13:18;;;;;;;;;;;;;;;27.86;37.25;100943.56;5074978;28;1007;-18
2023/07/15 03:15:44;;;;;;;;;;;;;;;27.88;37.15;100940.69;5076004;28;983;-18
2023/07/15 03:18:10;;;;;;;;;;;;;;;27.84;36.95;100942.09;5039635;28;1238;-18
2023/07/15 03:20:35;;;;;;;;;;;;;;;27.83;36.70;100945.81;5066646;28;1004;-18
2023/07/15 03:23:01;;;;;;;;;;;;;;;27.74;37.16;100945.88;5074457;28;1154;-18
2023/07/15 03:25:26;;;;;;;;;;;;;;;27.73;36.61;100949.63;5043678;28;1941;-18
2023/07/15 03:27:52;;;;;;;;;;;;;;;27.79;36.83;100947.22;5060724;28;1217;-17
2023/07/15 03:30:17;;;;;;;;;;;;;;;27.61;38.57;100949.16;5075884;28;1055;-18
2023/07/15 03:32:43;;;;;;;;;;;;;;;27.74;40.31;100945.88;5075569;28;1090;-18
2023/07/15 03:35:14;;;;;;;;;;;;;;;27.67;38.36;100946.75;5075728;28;1060;-18
2023/07/15 03:37:40;;;;;;;;;;;;;;;27.67;39.37;100949.47;5057367;28;1114;-18
2023/07/15 03:40:08;;;;;;;;;;;;;;;27.73;39.90;100946.91;5075827;28;1186;-18
2023/07/15 03:42:33;;;;;;;;;;;;;;;27.80;37.67;100951.56;5075787;28;1039;-18
2023/07/15 03:44:59;;;;;;;;;;;;;;;27.74;38.94;100951.28;5075746;28;1980;-18
2023/07/15 03:47:24;;;;;;;;;;;;;;;27.79;40.59;100948.06;5074312;28;1250;-18
2023/07/15 03:49:50;;;;;;;;;;;;;;;28.08;40.34;100951.81;5067349;28;1135;-18
2023/07/15 03:52:15;;;;;;;;;;;;;;;27.78;43.55;100953.66;5075506;28;1062;-18
2023/07/15 03:54:41;;;;;;;;;;;;;;;27.63;47.09;100952.53;5069288;28;2251;-18
2023/07/15 03:57:07;;;;;;;;;;;;;;;27.67;44.64;100947.63;5067531;28;921;-18
2023/07/15 03:59:32;;;;;;;;;;;;;;;27.62;46.46;100952.72;5074032;28;1219;-18
2023/07/15 04:01:58;;;;;;;;;;;;;;;21.51;53.71;100956.94;5070325;28;874;-18
2023/07/15 04:04:23;;;;;;;;;;;;;;;18.92;55.35;100945.63;5075497;28;1902;-17
2023/07/15 04:06:49;;;;;;;;;;;;;;;19.15;58.54;100944.81;5063700;28;1016;-17
2023/07/15 04:09:16;;;;;;;;;;;;;;;19.00;58.68;100946.84;5061552;28;1019;-17
2023/07/15 04:11:42;;;;;;;;;;;;;;;18.96;59.52;100946.25;5075519;28;1170;-16
2023/07/15 04:14:08;;;;;;;;;;;;;;;18.99;60.60;100953.13;5075036;28;1099;-17
2023/07/15 04:16:33;;;;;;;;;;;;;;;18.84;61.19;100953.41;5075776;28;1099;-17
2023/07/15 04:18:59;;;;;;;;;;;;;;;18.64;61.39;100960.31;5075646;28;1146;-17
2023/07/15 04:21:24;;;;;;;;;;;;;;;18.76;63.04;100955.81;5067470;28;1011;-18
2023/07/15 04:23:51;;;;;;;;;;;;;;;18.79;64.02;100964.44;5055810;28;2234;-18
2023/07/15 04:26:23;;;;;;;;;;;;;;;18.87;64.09;100963.00;5071559;28;1259;-18
2023/07/15 04:28:49;;;;;;;;;;;;;;;18.87;64.74;100960.31;5075504;28;1028;-18
2023/07/15 04:31:15;;;;;;;;;;;;;;;18.84;64.77;100966.72;5075473;28;999;-18
2023/07/15 04:33:41;;;;;;;;;;;;;;;18.82;64.68;100969.53;5075268;28;1068;-18
2023/07/15 04:36:07;;;;;;;;;;;;;;;18.84;64.99;100969.41;5075789;28;1147;-18
2023/07/15 04:38:32;;;;;;;;;;;;;;;18.91;65.41;100972.41;5078442;28;1143;-18
2023/07/15 04:40:58;;;;;;;;;;;;;;;18.81;66.01;100973.16;5079516;28;1158;-17
2023/07/15 04:43:23;;;;;;;;;;;;;;;18.88;65.77;100976.19;5078831;28;1902;-18
2023/07/15 04:45:49;;;;;;;;;;;;;;;18.86;66.24;100980.78;5079218;28;1205;-18
2023/07/15 04:48:14;;;;;;;;;;;;;;;18.89;66.80;100983.22;5079061;28;1042;-18
2023/07/15 04:50:40;;;;;;;;;;;;;;;19.01;66.38;100983.19;5078642;28;1031;-18
2023/07/15 04:53:06;;;;;;;;;;;;;;;19.02;65.95;100980.41;5078697;28;1043;-18
2023/07/15 04:55:31;;;;;;;;;;;;;;;18.97;65.76;100986.13;5078688;28;1944;-18
2023/07/15 04:57:57;;;;;;;;;;;;;;;18.88;66.44;100988.66;5078508;28;1110;-18
2023/07/15 05:00:22;;;;;;;;;;;;;;;19.21;66.75;100987.81;5078834;28;1087;-18
2023/07/15 05:02:49;;;;;;;;;;;;;;;19.00;66.02;100989.50;5078259;28;895;-17
2023/07/15 05:05:15;;;;;;;;;;;;;;;18.87;65.62;100989.66;5078694;28;1925;-17
2023/07/15 05:07:40;;;;;;;;;;;;;;;18.95;65.93;100989.88;5078682;28;1078;-17
2023/07/15 05:10:06;;;;;;;;;;;;;;;18.82;65.55;100984.66;5078241;28;1051;-18
2023/07/15 05:12:31;;;;;;;;;;;;;;;18.77;65.79;100990.34;5078390;28;912;-18
2023/07/15 05:14:57;;;;;;;;;;;;;;;19.14;66.49;100999.94;5071303;28;1237;-18
2023/07/15 05:17:22;;;;;;;;;;;;;;;18.66;64.20;100996.53;5060625;28;1001;-18
2023/07/15 05:19:48;;;;;;;;;;;;;;;21.86;55.94;101006.47;5078113;28;1059;-18
2023/07/15 05:22:13;;;;;;;;;;;;;;;23.80;53.78;101001.63;5078674;28;999;-18
2023/07/15 05:24:39;;;;;;;;;;;;;;;24.94;50.39;101002.75;5068900;28;2399;-18
2023/07/15 05:27:05;;;;;;;;;;;;;;;25.47;50.63;101013.31;5078158;28;1167;-18
2023/07/15 05:29:31;;;;;;;;;;;;;;;25.80;49.67;101010.69;5078420;28;1174;-18
2023/07/15 05:31:56;;;;;;;;;;;;;;;25.96;50.37;101021.66;5078065;28;1027;-18
2023/07/15 05:34:21;;;;;;;;;;;;;;;21.72;62.28;101013.03;5075431;28;1362;-18
2023/07/15 05:36:47;;;;;;;;;;;;;;;23.81;55.87;101013.19;5070237;28;1251;-18
2023/07/15 05:39:13;;;;;;;;;;;;;;;21.96;61.33;101019.00;5065638;28;1162;-18
2023/07/15 05:41:39;;;;;;;;;;;;;;;24.14;55.88;101020.69;5068095;28;911;-18
2023/07/15 05:44:04;;;;;;;;;;;;;;;21.91;62.30;101027.47;5073084;28;1905;-18
2023/07/15 05:46:30;;;;;;;;;;;;;;;24.08;56.53;101027.53;5077726;28;1123;-17
2023/07/15 05:48:56;;;;;;;;;;;;;;;22.01;61.13;101027.47;5077398;28;1130;-17
2023/07/15 05:51:22;;;;;;;;;;;;;;;24.19;55.74;101026.50;5077669;28;924;-17
2023/07/15 05:53:47;;;;;;;;;;;;;;;22.17;61.11;101029.56;5077032;28;1856;-18
2023/07/15 05:56:13;;;;;;;;;;;;;;;24.52;54.93;101028.56;5066416;28;1162;-17
2023/07/15 05:58:38;;;;;;;;;;;;;;;22.37;60.37;101027.69;5075887;28;1166;-17
2023/07/15 06:01:04;;;;;;;;;;;;;;;23.79;56.82;101032.16;5063847;28;1123;-17
2023/07/15 06:03:30;;;;;;;;;;;;;;;23.35;56.62;101030.19;5065966;28;1905;-17
2023/07/15 06:06:02;;;;;;;;;;;;;;;23.39;58.78;101033.41;5077189;28;1012;-17
2023/07/15 06:08:27;;;;;;;;;;;;;;;24.44;54.09;101038.25;5077532;28;999;-18
2023/07/15 06:10:53;;;;;;;;;;;;;;;22.99;61.29;101026.41;5077365;28;1091;-17
2023/07/15 06:13:18;;;;;;;;;;;;;;;25.21;52.26;101035.78;5077694;28;1111;-17
2023/07/15 06:15:48;;;;;;;;;;;;;;;22.40;62.44;101045.34;5077104;28;931;-17
2023/07/15 06:18:14;;;;;;;;;;;;;;;25.04;52.43;101046.50;5077285;28;1524;-16
2023/07/15 06:20:40;;;;;;;;;;;;;;;21.85;61.69;101042.28;5076632;28;1127;-17
2023/07/15 06:23:05;;;;;;;;;;;;;;;24.58;54.20;101046.72;5043176;28;1086;-17
2023/07/15 06:25:31;;;;;;;;;;;;;;;22.71;59.04;101037.09;5066187;28;2585;-17
2023/07/15 06:27:56;;;;;;;;;;;;;;;23.11;60.10;101037.78;5076403;28;1055;-17
2023/07/15 06:30:22;;;;;;;;;;;;;;;25.37;51.64;101043.09;5077060;28;1206;-17
2023/07/15 06:32:49;;;;;;;;;;;;;;;21.86;60.98;101043.97;5076969;28;1563;-17
2023/07/15 06:35:14;;;;;;;;;;;;;;;24.63;52.92;101049.81;5076982;28;1114;-18
2023/07/15 06:37:40;;;;;;;;;;;;;;;22.36;57.96;101044.78;5077252;28;1118;-17
2023/07/15 06:40:06;;;;;;;;;;;;;;;24.05;54.66;101044.81;5076932;28;910;-17
2023/07/15 06:42:31;;;;;;;;;;;;;;;23.72;54.27;101039.16;5076747;28;1202;-17
2023/07/15 06:44:57;;;;;;;;;;;;;;;22.63;61.24;101040.53;5077033;28;1984;-16
2023/07/15 06:47:22;;;;;;;;;;;;;;;25.17;50.79;101043.34;5072290;28;1269;-18
2023/07/15 06:49:47;;;;;;;;;;;;;;;21.97;59.43;101042.13;5066565;28;1084;-17
2023/07/15 06:52:13;;;;;;;;;;;;;;;24.24;53.93;101051.03;5076364;28;1059;-17
2023/07/15 06:54:39;;;;;;;;;;;;;;;23.96;52.76;101048.41;5069030;28;2284;-17
2023/07/15 06:57:04;;;;;;;;;;;;;;;22.06;59.11;101053.81;5073114;28;1042;-17
2023/07/15 06:59:30;;;;;;;;;;;;;;;24.87;51.51;101053.63;5076135;28;1085;-17
2023/07/15 07:01:55;;;;;;;;;;;;;;;22.70;56.11;101050.66;5062639;28;1035;-17
2023/07/15 07:04:21;;;;;;;;;;;;;;;21.99;58.22;101046.34;5075411;28;1905;-18
2023/07/15 07:06:46;;;;;;;;;;;;;;;21.85;59.04;101044.94;5062807;28;1134;-18
2023/07/15 07:09:12;;;;;;;;;;;;;;;21.97;58.40;101055.53;5076222;28;1178;-18
2023/07/15 07:11:37;;;;;;;;;;;;;;;22.09;58.63;101045.50;5069306;28;1328;-19
2023/07/15 07:14:04;;;;;;;;;;;;;;;24.56;52.40;101057.66;5066490;28;1036;-19
2023/07/15 07:16:29;;;;;;;;;;;;;;;23.76;51.76;101050.41;5076101;28;1080;-18
2023/07/15 07:18:55;;;;;;;;;;;;;;;22.08;56.75;101049.16;5075782;28;1062;-18
2023/07/15 07:21:20;;;;;;;;;;;;;;;21.81;56.70;101054.25;5075647;28;1119;-19
2023/07/15 07:23:47;;;;;;;;;;;;;;;21.95;58.49;101052.13;5065650;28;2414;-18
2023/07/15 07:26:12;;;;;;;;;;;;;;;22.09;57.94;101049.03;5058843;28;1034;-18
2023/07/15 07:28:39;;;;;;;;;;;;;;;21.96;58.05;101054.66;5069996;28;1035;-18
2023/07/15 07:31:04;;;;;;;;;;;;;;;22.11;57.55;101060.44;5056143;28;1198;-18
2023/07/15 07:33:30;;;;;;;;;;;;;;;21.92;57.88;101053.25;5060057;28;1359;-17
2023/07/15 07:35:55;;;;;;;;;;;;;;;21.96;58.30;101064.53;5059192;28;1075;-17
2023/07/15 07:38:20;;;;;;;;;;;;;;;21.84;59.59;101056.63;5075841;28;1042;-17
2023/07/15 07:40:47;;;;;;;;;;;;;;;22.06;58.82;101054.66;5065144;28;883;-17
2023/07/15 07:43:12;;;;;;;;;;;;;;;22.00;60.38;101056.06;5075858;28;979;-17
2023/07/15 07:45:38;;;;;;;;;;;;;;;22.04;59.58;101053.97;5075762;28;1976;-17
2023/07/15 07:48:03;;;;;;;;;;;;;;;22.07;58.63;101068.91;5075646;28;995;-17
2023/07/15 07:50:29;;;;;;;;;;;;;;;21.92;58.80;101057.78;5075885;28;1170;-17
2023/07/15 07:52:54;;;;;;;;;;;;;;;21.88;58.18;101062.56;5075801;28;1219;-17
2023/07/15 07:55:20;;;;;;;;;;;;;;;21.77;58.88;101064.34;5075403;28;1838;-17
2023/07/15 07:57:45;;;;;;;;;;;;;;;21.78;58.99;101065.22;5075607;28;1051;-17
2023/07/15 08:00:11;;;;;;;;;;;;;;;21.63;59.49;101049.53;5075819;28;1001;-17
2023/07/15 08:02:36;;;;;;;;;;;;;;;21.78;59.06;101065.22;5075349;28;1064;-17
2023/07/15 08:05:04;;;;;;;;;;;;;;;21.75;59.42;101052.09;5075362;28;1913;-17
2023/07/15 08:07:29;;;;;;;;;;;;;;;21.82;60.33;101058.59;5075712;28;1083;-17
2023/07/15 08:09:55;;;;;;;;;;;;;;;21.82;59.29;101063.94;5066034;28;1335;-17
2023/07/15 08:12:20;;;;;;;;;;;;;;;21.72;58.62;101063.91;5069384;28;1075;-17
2023/07/15 08:14:46;;;;;;;;;;;;;;;21.75;58.48;101058.28;5071217;28;1055;-17
2023/07/15 08:17:11;;;;;;;;;;;;;;;21.73;58.83;101059.41;5079262;28;963;-17
2023/07/15 08:19:37;;;;;;;;;;;;;;;21.68;59.24;101062.50;5079589;28;1186;-17
2023/07/15 08:22:02;;;;;;;;;;;;;;;21.74;58.79;101067.31;5079441;28;1015;-17
2023/07/15 08:24:28;;;;;;;;;;;;;;;21.76;59.06;101068.03;5078911;28;1986;-17
2023/07/15 08:26:53;;;;;;;;;;;;;;;21.80;58.87;101065.94;5079258;28;1551;-17
2023/07/15 08:29:19;;;;;;;;;;;;;;;21.92;58.55;101065.81;5079438;28;895;-17
2023/07/15 08:31:46;;;;;;;;;;;;;;;21.98;58.50;101070.59;5079624;28;933;-17
2023/07/15 08:34:12;;;;;;;;;;;;;;;21.92;58.20;101063.13;5079138;28;1085;-17
2023/07/15 08:36:37;;;;;;;;;;;;;;;21.74;58.34;101078.00;5069822;28;1023;-17
2023/07/15 08:39:03;;;;;;;;;;;;;;;21.75;58.04;101074.34;5073600;28;1039;-16
2023/07/15 08:41:29;;;;;;;;;;;;;;;21.82;57.85;101071.16;5079035;28;996;-17
2023/07/15 08:43:54;;;;;;;;;;;;;;;21.69;58.00;101066.03;5078729;28;1985;-16
2023/07/15 08:46:22;;;;;;;;;;;;;;;21.71;59.29;101070.25;5079192;28;1030;-17
2023/07/15 08:48:47;;;;;;;;;;;;;;;21.64;58.69;101061.94;5078973;28;1010;-17
2023/07/15 08:51:13;;;;;;;;;;;;;;;21.36;59.37;101064.41;5079283;28;1186;-17
2023/07/15 08:53:38;;;;;;;;;;;;;;;23.68;53.59;101067.31;5068860;28;1186;-17
2023/07/15 08:56:04;;;;;;;;;;;;;;;24.01;50.90;101064.94;5033486;28;2493;-17
2023/07/15 08:58:29;;;;;;;;;;;;;;;22.14;57.48;101078.06;5053637;28;1174;-17
2023/07/15 09:00:55;;;;;;;;;;;;;;;21.17;60.23;101057.16;5057077;28;1409;-17
2023/07/15 09:03:21;;;;;;;;;;;;;;;24.17;52.77;101072.31;5058824;28;1210;-17
2023/07/15 09:05:48;;;;;;;;;;;;;;;22.87;53.80;101071.34;5070615;28;1988;-17
2023/07/15 09:08:15;;;;;;;;;;;;;;;21.81;57.62;101072.97;5078613;28;1127;-17
2023/07/15 09:10:51;;;;;;;;;;;;;;;21.42;58.84;101068.34;5078867;28;1206;-17
2023/07/15 09:13:21;;;;;;;;;;;;;;;21.62;59.68;101068.44;5065637;28;1043;-17
2023/07/15 09:15:47;;;;;;;;;;;;;;;24.54;50.65;101077.66;5078494;28;1043;-17
2023/07/15 09:18:14;;;;;;;;;;;;;;;21.95;55.97;101076.25;5078693;28;1015;-17
2023/07/15 09:20:40;;;;;;;;;;;;;;;22.28;57.58;101074.13;5076964;28;1099;-17
2023/07/15 09:23:05;;;;;;;;;;;;;;;25.15;48.10;101069.59;5069107;28;968;-17
2023/07/15 09:25:31;;;;;;;;;;;;;;;21.93;55.31;101073.72;5058564;28;2373;-17
2023/07/15 09:27:57;;;;;;;;;;;;;;;21.56;57.54;101083.19;5058355;28;1083;-17
2023/07/15 09:30:22;;;;;;;;;;;;;;;21.34;58.05;101079.75;5041574;28;1051;-17
2023/07/15 09:32:48;;;;;;;;;;;;;;;21.54;57.41;101090.50;5078019;28;1168;-17
2023/07/15 09:35:16;;;;;;;;;;;;;;;22.82;55.11;101084.34;5077715;28;1030;-17
2023/07/15 09:37:42;;;;;;;;;;;;;;;25.51;47.29;101083.84;5078478;28;1107;-18
2023/07/15 09:40:08;;;;;;;;;;;;;;;22.25;56.10;101080.59;5058007;28;1430;-17
2023/07/15 09:42:49;;;;;;;;;;;;;;;22.22;53.29;101080.06;5063468;28;1091;-16
2023/07/15 09:45:31;;;;;;;;;;;;;;;24.07;50.30;101075.06;5057601;28;1902;-17
2023/07/15 09:47:57;;;;;;;;;;;;;;;24.13;49.21;101073.59;5071001;28;1293;-17
2023/07/15 09:50:22;;;;;;;;;;;;;;;23.43;51.07;101072.41;5067245;28;915;-17
2023/07/15 09:52:48;;;;;;;;;;;;;;;23.09;51.29;101069.28;5059678;28;1071;-17
2023/07/15 09:55:13;;;;;;;;;;;;;;;23.41;50.49;101080.59;5065829;28;2702;-16
2023/07/15 09:57:39;;;;;;;;;;;;;;;23.30;50.86;101078.94;5058184;28;1091;-17
2023/07/15 10:00:05;;;;;;;;;;;;;;;24.71;48.33;101073.19;5060300;28;1059;-17
2023/07/15 10:02:41;;;;;;;;;;;;;;;25.35;46.60;101081.94;5060746;28;997;-17
2023/07/15 10:05:13;;;;;;;;;;;;;;;23.98;49.48;101073.31;5076591;28;1910;-17
2023/07/15 10:07:39;;;;;;;;;;;;;;;23.53;49.92;101075.03;5063843;28;1154;-17
2023/07/15 10:10:06;;;;;;;;;;;;;;;23.53;49.92;101075.03;5059668;28;1194;-17
2023/07/15 10:12:33;;;;;;;;;;;;;;;23.42;50.08;101071.53;5077118;28;995;-17
2023/07/15 10:14:58;;;;;;;;;;;;;;;23.58;49.75;101073.59;5059373;28;1442;-17
2023/07/15 10:17:24;;;;;;;;;;;;;;;23.71;52.06;101064.31;5059314;28;1084;-17
2023/07/15 10:19:50;;;;;;;;;;;;;;;25.64;45.51;101073.47;5059646;28;1328;-17
2023/07/15 10:22:16;;;;;;;;;;;;;;;23.85;48.44;101071.00;5076944;28;1003;-17
2023/07/15 10:24:42;;;;;;;;;;;;;;;22.95;50.40;101069.78;5072107;28;2298;-17
2023/07/15 10:27:10;;;;;;;;;;;;;;;25.09;46.76;101072.09;5077092;28;1206;-17
2023/07/15 10:29:39;;;;;;;;;;;;;;;24.17;48.89;101066.94;5075286;28;1130;-17
2023/07/15 10:32:08;;;;;;;;;;;;;;;23.15;51.50;101067.84;5066052;28;1036;-17
2023/07/15 10:34:34;;;;;;;;;;;;;;;23.51;51.19;101068.94;5075881;28;1051;-17
2023/07/15 10:37:05;;;;;;;;;;;;;;;25.51;46.17;101065.00;5072990;28;1162;-17
2023/07/15 10:39:31;;;;;;;;;;;;;;;23.70;50.45;101059.94;5060368;28;948;-17
2023/07/15 10:41:57;;;;;;;;;;;;;;;23.16;53.34;101069.53;5076554;28;855;-17
2023/07/15 10:44:23;;;;;;;;;;;;;;;25.56;46.70;101063.50;5058581;28;1913;-17
2023/07/15 10:46:58;;;;;;;;;;;;;;;23.97;48.76;101059.00;5077199;28;1146;-16
2023/07/15 10:49:23;;;;;;;;;;;;;;;22.91;51.51;101061.16;5076657;28;1119;-16
2023/07/15 10:51:52;;;;;;;;;;;;;;;23.66;51.66;101056.72;5076113;28;1213;-17
2023/07/15 10:54:18;;;;;;;;;;;;;;;25.98;44.88;101066.28;5058826;28;2341;-17
2023/07/15 10:56:44;;;;;;;;;;;;;;;23.68;49.28;101056.56;5075673;28;1302;-17
2023/07/15 10:59:09;;;;;;;;;;;;;;;23.83;48.36;101048.81;5060822;28;1013;-17
2023/07/15 11:01:35;;;;;;;;;;;;;;;23.24;49.76;101066.97;5065297;28;1119;-16
2023/07/15 11:04:04;;;;;;;;;;;;;;;23.31;49.17;101056.47;5050004;28;1926;-17
2023/07/15 11:06:30;;;;;;;;;;;;;;;24.30;47.84;101053.13;5071763;28;1064;-17
2023/07/15 11:08:55;;;;;;;;;;;;;;;25.84;44.70;101048.91;5075956;28;1166;-17
2023/07/15 11:11:22;;;;;;;;;;;;;;;22.72;51.16;101048.69;5071463;28;986;-16
2023/07/15 11:13:48;;;;;;;;;;;;;;;23.68;51.50;101051.19;5063102;28;1261;-17
2023/07/15 11:16:13;;;;;;;;;;;;;;;25.92;44.62;101046.22;5067057;28;1119;-17
2023/07/15 11:18:39;;;;;;;;;;;;;;;23.83;49.51;101051.50;5074266;28;1170;-17
2023/07/15 11:21:05;;;;;;;;;;;;;;;22.77;51.65;101048.25;5066610;28;1151;-17
2023/07/15 11:23:30;;;;;;;;;;;;;;;22.83;55.12;101053.88;5059563;28;1151;-17
2023/07/15 11:25:59;;;;;;;;;;;;;;;25.59;45.72;101056.09;5058118;28;2622;-17
2023/07/15 11:28:24;;;;;;;;;;;;;;;23.27;50.63;101043.50;5054640;28;1074;-16
2023/07/15 11:30:50;;;;;;;;;;;;;;;23.05;50.63;101043.75;5055959;28;857;-17
2023/07/15 11:33:15;;;;;;;;;;;;;;;23.03;52.44;101045.72;5059607;28;1336;-17
2023/07/15 11:35:41;;;;;;;;;;;;;;;25.25;46.35;101045.25;5076127;28;1076;-17
2023/07/15 11:38:09;;;;;;;;;;;;;;;23.39;49.76;101039.59;5075973;28;1226;-16
2023/07/15 11:40:36;;;;;;;;;;;;;;;22.65;51.66;101044.88;5075683;28;1039;-17
2023/07/15 11:43:04;;;;;;;;;;;;;;;24.11;49.35;101055.97;5075557;28;881;-17
2023/07/15 11:45:29;;;;;;;;;;;;;;;24.36;49.10;101043.56;5075551;28;1968;-17
2023/07/15 11:47:55;;;;;;;;;;;;;;;22.69;51.89;101036.41;5075992;28;1094;-16
2023/07/15 11:50:24;;;;;;;;;;;;;;;22.63;52.32;101040.53;5075698;28;1070;-17
2023/07/15 11:52:49;;;;;;;;;;;;;;;24.78;48.11;101041.97;5075731;28;1449;-17
2023/07/15 11:55:15;;;;;;;;;;;;;;;23.81;50.13;101042.75;5074682;28;1912;-17
2023/07/15 11:57:40;;;;;;;;;;;;;;;23.38;50.66;101035.25;5055511;28;1170;-17
2023/07/15 12:00:08;;;;;;;;;;;;;;;23.16;54.05;101047.22;5069803;28;1023;-17
2023/07/15 12:02:35;;;;;;;;;;;;;;;25.45;46.70;101050.34;5075673;28;991;-17
2023/07/15 12:05:00;;;;;;;;;;;;;;;23.56;50.65;101032.59;5074349;28;1894;-17
2023/07/15 12:07:26;;;;;;;;;;;;;;;22.68;51.88;101034.72;5037981;28;1040;-17
2023/07/15 12:10:07;;;;;;;;;;;;;;;23.31;53.19;101032.31;5056437;28;1127;-17
2023/07/15 12:12:32;;;;;;;;;;;;;;;25.16;47.98;101028.22;5075960;28;1084;-17
2023/07/15 12:14:58;;;;;;;;;;;;;;;22.47;53.27;101026.84;5075764;28;1143;-17
2023/07/15 12:17:23;;;;;;;;;;;;;;;21.97;55.43;101031.41;5075405;28;1066;-17
2023/07/15 12:19:48;;;;;;;;;;;;;;;24.95;48.95;101031.34;5075325;28;1115;-17
2023/07/15 12:22:14;;;;;;;;;;;;;;;23.75;51.16;101020.03;5075730;28;1075;-18
2023/07/15 12:24:40;;;;;;;;;;;;;;;22.02;54.68;101023.81;5070140;28;2459;-18
2023/07/15 12:27:05;;;;;;;;;;;;;;;23.58;52.51;101008.28;5075690;28;1040;-18
2023/07/15 12:29:31;;;;;;;;;;;;;;;24.17;49.92;101010.50;5075101;28;925;-18
2023/07/15 12:31:56;;;;;;;;;;;;;;;21.97;55.38;101008.13;5075351;28;1103;-18
2023/07/15 12:34:22;;;;;;;;;;;;;;;24.65;49.18;101007.44;5075373;28;1161;-18
2023/07/15 12:36:47;;;;;;;;;;;;;;;23.03;52.09;101005.50;5071369;28;1100;-18
2023/07/15 12:39:13;;;;;;;;;;;;;;;22.43;58.55;101001.31;5072685;28;1146;-18
2023/07/15 12:41:39;;;;;;;;;;;;;;;25.31;46.75;101000.66;5055579;28;1119;-18